Fort Bragg, California
Current Conditions -  °F | °C
As of 1:56 AM on Thursday 29 Jan 2015 (Local Time) from KUKI Reporting Station
Clear Clear  
Wind Chill: 42°   Ceiling: Unl
Heat Index: 42°   Visibility: 10mi
Dew Point: 38°   Wind: 0mph
Humidity: 85%   Direction: NA
Pressure: 30.2"   Gusts: NA
Location:  39.45°N, 123.8°W
Report Text: KUKI 290956Z AUTO 00000KT 10SM CLR 06/03 A3020 RMK AO2 SLP221 T00560033
Loading
Personal Weather Stations






























Interactive Weather Map New forecast layout! Learn more

10-Day Weather Forecast

Advertisements
Track Severe Weather on mobile